Holeby, Denmark
Current Conditions -  °F | °C
As of 4:20 PM on Monday 22 Dec 2014 (Local Time) from EDHK Reporting Station
Moderate Rain Moderate Rain  
Wind Chill:   Ceiling: 400
Heat Index:   Visibility: 2.2mi
Dew Point:   Wind: 16mph
Humidity: 93%   Direction: 260°W
Pressure: 29.65"   Gusts: NA
Location:  54.71°N, 11.46°E
Report Text: EDHK 221520Z 26014KT 3600 RA BR OVC004 09/08 Q1004
Loading
Personal Weather Stations






























Interactive Weather Map New forecast layout! Learn more

10-Day Weather Forecast

Advertisements
Track Severe Weather on mobile